sensor_id;sensor_type;location;lat;lon;timestamp;pressure;altitude;pressure_sealevel;temperature;humidity
14269;BME280;7218;51.480;7.006;2022-09-19T00:00:40;100805.69;;;12.43;100.00
14269;BME280;7218;51.480;7.006;2022-09-19T00:03:07;100804.81;;;12.44;100.00
14269;BME280;7218;51.480;7.006;2022-09-19T00:05:38;100802.84;;;12.55;100.00
14269;BME280;7218;51.480;7.006;2022-09-19T00:08:04;100808.50;;;12.32;100.00
14269;BME280;7218;51.480;7.006;2022-09-19T00:10:36;100804.81;;;12.44;100.00
14269;BME280;7218;51.480;7.006;2022-09-19T00:13:03;100800.28;;;12.50;100.00
14269;BME280;7218;51.480;7.006;2022-09-19T00:15:31;100798.63;;;12.48;100.00
14269;BME280;7218;51.480;7.006;2022-09-19T00:17:59;100803.69;;;12.56;100.00
14269;BME280;7218;51.480;7.006;2022-09-19T00:20:26;100797.34;;;12.69;100.00
14269;BME280;7218;51.480;7.006;2022-09-19T00:22:53;100805.50;;;12.52;100.00
14269;BME280;7218;51.480;7.006;2022-09-19T00:25:33;100804.91;;;12.38;100.00
14269;BME280;7218;51.480;7.006;2022-09-19T00:28:00;100802.72;;;12.61;100.00
14269;BME280;7218;51.480;7.006;2022-09-19T00:30:26;100799.47;;;12.48;100.00
14269;BME280;7218;51.480;7.006;2022-09-19T00:32:53;100808.47;;;12.34;100.00
14269;BME280;7218;51.480;7.006;2022-09-19T00:35:20;100794.19;;;12.51;100.00
14269;BME280;7218;51.480;7.006;2022-09-19T00:37:47;100805.88;;;12.31;100.00
14269;BME280;7218;51.480;7.006;2022-09-19T00:40:13;100807.16;;;12.58;100.00
14269;BME280;7218;51.480;7.006;2022-09-19T00:42:40;100810.44;;;12.67;100.00
14269;BME280;7218;51.480;7.006;2022-09-19T00:45:11;100806.34;;;12.54;100.00
14269;BME280;7218;51.480;7.006;2022-09-19T00:47:41;100815.19;;;12.47;100.00
14269;BME280;7218;51.480;7.006;2022-09-19T00:50:14;100808.97;;;12.54;100.00
14269;BME280;7218;51.480;7.006;2022-09-19T00:52:46;100805.66;;;12.44;100.00
14269;BME280;7218;51.480;7.006;2022-09-19T00:55:15;100814.59;;;12.31;100.00
14269;BME280;7218;51.480;7.006;2022-09-19T00:57:50;100816.91;;;12.49;100.00
14269;BME280;7218;51.480;7.006;2022-09-19T01:00:17;100818.88;;;12.37;100.00
14269;BME280;7218;51.480;7.006;2022-09-19T01:02:44;100811.88;;;12.39;100.00
14269;BME280;7218;51.480;7.006;2022-09-19T01:05:12;100807.53;;;12.38;100.00
14269;BME280;7218;51.480;7.006;2022-09-19T01:07:48;100818.16;;;12.27;100.00
14269;BME280;7218;51.480;7.006;2022-09-19T01:10:37;100818.81;;;12.40;100.00
14269;BME280;7218;51.480;7.006;2022-09-19T01:13:11;100825.66;;;12.47;100.00
14269;BME280;7218;51.480;7.006;2022-09-19T01:15:46;100829.91;;;12.54;100.00
14269;BME280;7218;51.480;7.006;2022-09-19T01:18:23;100828.22;;;12.50;100.00
14269;BME280;7218;51.480;7.006;2022-09-19T01:21:08;100833.31;;;12.58;100.00
14269;BME280;7218;51.480;7.006;2022-09-19T01:24:09;100827.22;;;12.57;100.00
14269;BME280;7218;51.480;7.006;2022-09-19T01:26:54;100834.97;;;12.62;100.00
14269;BME280;7218;51.480;7.006;2022-09-19T01:29:29;100827.88;;;12.68;100.00
14269;BME280;7218;51.480;7.006;2022-09-19T01:31:59;100829.53;;;12.72;100.00
14269;BME280;7218;51.480;7.006;2022-09-19T01:34:31;100837.94;;;12.42;100.00
14269;BME280;7218;51.480;7.006;2022-09-19T01:37:04;100827.31;;;12.51;100.00
14269;BME280;7218;51.480;7.006;2022-09-19T01:39:34;100830.38;;;12.27;100.00
14269;BME280;7218;51.480;7.006;2022-09-19T01:42:01;100836.13;;;12.45;100.00
14269;BME280;7218;51.480;7.006;2022-09-19T01:44:30;100848.25;;;12.51;100.00
14269;BME280;7218;51.480;7.006;2022-09-19T01:47:06;100846.00;;;12.77;100.00
14269;BME280;7218;51.480;7.006;2022-09-19T01:49:42;100847.09;;;12.66;100.00
14269;BME280;7218;51.480;7.006;2022-09-19T01:52:17;100842.63;;;12.72;100.00
14269;BME280;7218;51.480;7.006;2022-09-19T01:54:55;100843.56;;;12.68;100.00
14269;BME280;7218;51.480;7.006;2022-09-19T01:57:31;100838.44;;;12.62;100.00
14269;BME280;7218;51.480;7.006;2022-09-19T02:00:07;100843.66;;;12.64;100.00
14269;BME280;7218;51.480;7.006;2022-09-19T02:02:39;100845.53;;;12.57;100.00
14269;BME280;7218;51.480;7.006;2022-09-19T02:05:13;100848.38;;;12.45;100.00
14269;BME280;7218;51.480;7.006;2022-09-19T02:07:47;100853.63;;;12.43;100.00
14269;BME280;7218;51.480;7.006;2022-09-19T02:10:21;100857.38;;;12.29;100.00
14269;BME280;7218;51.480;7.006;2022-09-19T02:12:52;100861.69;;;12.31;100.00
14269;BME280;7218;51.480;7.006;2022-09-19T02:15:25;100853.78;;;11.82;100.00
14269;BME280;7218;51.480;7.006;2022-09-19T02:17:57;100857.56;;;12.18;100.00
14269;BME280;7218;51.480;7.006;2022-09-19T02:20:27;100859.47;;;12.08;100.00
14269;BME280;7218;51.480;7.006;2022-09-19T02:22:57;100861.03;;;12.19;100.00
14269;BME280;7218;51.480;7.006;2022-09-19T02:25:29;100856.63;;;12.21;100.00
14269;BME280;7218;51.480;7.006;2022-09-19T02:28:00;100851.91;;;12.41;100.00
14269;BME280;7218;51.480;7.006;2022-09-19T02:30:30;100857.19;;;12.39;100.00
14269;BME280;7218;51.480;7.006;2022-09-19T02:32:57;100863.63;;;12.20;100.00
14269;BME280;7218;51.480;7.006;2022-09-19T02:35:27;100859.25;;;12.21;100.00
14269;BME280;7218;51.480;7.006;2022-09-19T02:38:05;100867.06;;;12.24;100.00
14269;BME280;7218;51.480;7.006;2022-09-19T02:40:37;100872.31;;;12.21;100.00
14269;BME280;7218;51.480;7.006;2022-09-19T02:43:09;100870.34;;;12.35;100.00
14269;BME280;7218;51.480;7.006;2022-09-19T02:45:44;100879.88;;;12.39;100.00
14269;BME280;7218;51.480;7.006;2022-09-19T02:48:17;100878.94;;;12.41;100.00
14269;BME280;7218;51.480;7.006;2022-09-19T02:50:50;100872.81;;;12.42;100.00
14269;BME280;7218;51.480;7.006;2022-09-19T02:53:26;100884.22;;;12.38;100.00
14269;BME280;7218;51.480;7.006;2022-09-19T02:55:57;100877.28;;;12.36;100.00
14269;BME280;7218;51.480;7.006;2022-09-19T02:58:26;100883.53;;;12.27;100.00
14269;BME280;7218;51.480;7.006;2022-09-19T03:00:59;100883.69;;;12.18;100.00
14269;BME280;7218;51.480;7.006;2022-09-19T03:03:31;100887.00;;;12.29;100.00
14269;BME280;7218;51.480;7.006;2022-09-19T03:06:19;100886.13;;;12.30;100.00
14269;BME280;7218;51.480;7.006;2022-09-19T03:08:51;100888.75;;;12.29;100.00
14269;BME280;7218;51.480;7.006;2022-09-19T03:11:23;100895.59;;;12.36;100.00
14269;BME280;7218;51.480;7.006;2022-09-19T03:13:50;100898.22;;;12.36;100.00
14269;BME280;7218;51.480;7.006;2022-09-19T03:16:24;100890.16;;;12.48;100.00
14269;BME280;7218;51.480;7.006;2022-09-19T03:18:53;100891.00;;;12.50;100.00
14269;BME280;7218;51.480;7.006;2022-09-19T03:21:22;100895.41;;;12.48;100.00
14269;BME280;7218;51.480;7.006;2022-09-19T03:23:50;100895.31;;;12.54;100.00
14269;BME280;7218;51.480;7.006;2022-09-19T03:26:19;100898.56;;;12.65;100.00
14269;BME280;7218;51.480;7.006;2022-09-19T03:28:46;100890.50;;;12.77;100.00
14269;BME280;7218;51.480;7.006;2022-09-19T03:31:13;100901.84;;;12.76;100.00
14269;BME280;7218;51.480;7.006;2022-09-19T03:33:41;100887.81;;;12.80;100.00
14269;BME280;7218;51.480;7.006;2022-09-19T03:36:07;100895.13;;;12.63;100.00
14269;BME280;7218;51.480;7.006;2022-09-19T03:38:35;100899.44;;;12.66;100.00
14269;BME280;7218;51.480;7.006;2022-09-19T03:41:02;100900.44;;;12.60;100.00
14269;BME280;7218;51.480;7.006;2022-09-19T03:43:28;100906.84;;;12.41;100.00
14269;BME280;7218;51.480;7.006;2022-09-19T03:45:55;100904.22;;;12.41;100.00
14269;BME280;7218;51.480;7.006;2022-09-19T03:48:22;100902.47;;;12.41;100.00
14269;BME280;7218;51.480;7.006;2022-09-19T03:50:50;100895.00;;;12.20;100.00
14269;BME280;7218;51.480;7.006;2022-09-19T03:53:16;100900.41;;;12.10;100.00
14269;BME280;7218;51.480;7.006;2022-09-19T03:55:45;100896.94;;;12.07;100.00
14269;BME280;7218;51.480;7.006;2022-09-19T03:58:12;100902.91;;;12.16;100.00
14269;BME280;7218;51.480;7.006;2022-09-19T04:00:38;100889.88;;;12.13;100.00
14269;BME280;7218;51.480;7.006;2022-09-19T04:03:05;100905.72;;;12.02;100.00
14269;BME280;7218;51.480;7.006;2022-09-19T04:05:31;100903.03;;;12.10;100.00
14269;BME280;7218;51.480;7.006;2022-09-19T04:08:00;100910.69;;;12.20;100.00
14269;BME280;7218;51.480;7.006;2022-09-19T04:10:26;100909.22;;;12.02;100.00
14269;BME280;7218;51.480;7.006;2022-09-19T04:12:53;100911.81;;;12.02;100.00
14269;BME280;7218;51.480;7.006;2022-09-19T04:15:21;100913.22;;;12.25;100.00
14269;BME280;7218;51.480;7.006;2022-09-19T04:17:47;100908.97;;;12.19;100.00
14269;BME280;7218;51.480;7.006;2022-09-19T04:20:14;100919.59;;;12.05;100.00
14269;BME280;7218;51.480;7.006;2022-09-19T04:22:41;100917.84;;;12.09;100.00
14269;BME280;7218;51.480;7.006;2022-09-19T04:25:08;100922.13;;;12.12;100.00
14269;BME280;7218;51.480;7.006;2022-09-19T04:27:36;100922.78;;;12.26;100.00
14269;BME280;7218;51.480;7.006;2022-09-19T04:30:03;100920.28;;;12.20;100.00
14269;BME280;7218;51.480;7.006;2022-09-19T04:32:30;100921.88;;;12.30;100.00
14269;BME280;7218;51.480;7.006;2022-09-19T04:34:56;100933.94;;;12.37;100.00
14269;BME280;7218;51.480;7.006;2022-09-19T04:37:24;100919.13;;;12.37;100.00
14269;BME280;7218;51.480;7.006;2022-09-19T04:39:50;100922.59;;;12.38;100.00
14269;BME280;7218;51.480;7.006;2022-09-19T04:42:18;100929.75;;;12.27;100.00
14269;BME280;7218;51.480;7.006;2022-09-19T04:44:45;100935.47;;;12.50;100.00
14269;BME280;7218;51.480;7.006;2022-09-19T04:47:11;100926.94;;;12.39;100.00
14269;BME280;7218;51.480;7.006;2022-09-19T04:49:39;100931.63;;;12.19;100.00
14269;BME280;7218;51.480;7.006;2022-09-19T04:52:07;100932.41;;;12.24;100.00
14269;BME280;7218;51.480;7.006;2022-09-19T04:54:34;100941.47;;;12.01;100.00
14269;BME280;7218;51.480;7.006;2022-09-19T04:57:03;100947.69;;;11.94;100.00
14269;BME280;7218;51.480;7.006;2022-09-19T04:59:32;100948.25;;;12.15;100.00
14269;BME280;7218;51.480;7.006;2022-09-19T05:01:59;100940.53;;;12.05;100.00
14269;BME280;7218;51.480;7.006;2022-09-19T05:04:26;100946.59;;;12.09;100.00
14269;BME280;7218;51.480;7.006;2022-09-19T05:06:53;100945.81;;;12.01;100.00
14269;BME280;7218;51.480;7.006;2022-09-19T05:09:19;100943.34;;;11.92;100.00
14269;BME280;7218;51.480;7.006;2022-09-19T05:11:47;100951.06;;;12.01;100.00
14269;BME280;7218;51.480;7.006;2022-09-19T05:14:14;100946.69;;;12.01;100.00
14269;BME280;7218;51.480;7.006;2022-09-19T05:16:42;100947.69;;;11.93;100.00
14269;BME280;7218;51.480;7.006;2022-09-19T05:19:08;100957.06;;;12.07;100.00
14269;BME280;7218;51.480;7.006;2022-09-19T05:21:35;100955.00;;;12.28;100.00
14269;BME280;7218;51.480;7.006;2022-09-19T05:24:02;100962.13;;;12.20;100.00
14269;BME280;7218;51.480;7.006;2022-09-19T05:26:28;100958.78;;;12.10;100.00
14269;BME280;7218;51.480;7.006;2022-09-19T05:28:55;100962.78;;;12.34;100.00
14269;BME280;7218;51.480;7.006;2022-09-19T05:31:21;100966.50;;;12.18;100.00
14269;BME280;7218;51.480;7.006;2022-09-19T05:33:50;100968.00;;;12.32;100.00
14269;BME280;7218;51.480;7.006;2022-09-19T05:36:17;100966.25;;;12.33;100.00
14269;BME280;7218;51.480;7.006;2022-09-19T05:38:43;100979.22;;;12.40;100.00
14269;BME280;7218;51.480;7.006;2022-09-19T05:41:11;100975.75;;;12.40;100.00
14269;BME280;7218;51.480;7.006;2022-09-19T05:43:38;100976.78;;;12.30;100.00
14269;BME280;7218;51.480;7.006;2022-09-19T05:46:04;100976.66;;;12.37;100.00
14269;BME280;7218;51.480;7.006;2022-09-19T05:48:31;100979.19;;;12.43;100.00
14269;BME280;7218;51.480;7.006;2022-09-19T05:50:59;100984.25;;;12.54;100.00
14269;BME280;7218;51.480;7.006;2022-09-19T05:53:25;100987.97;;;12.38;100.00
14269;BME280;7218;51.480;7.006;2022-09-19T05:56:09;100984.88;;;12.12;100.00
14269;BME280;7218;51.480;7.006;2022-09-19T05:58:36;100994.97;;;12.37;100.00
14269;BME280;7218;51.480;7.006;2022-09-19T06:01:04;100993.03;;;12.50;100.00
14269;BME280;7218;51.480;7.006;2022-09-19T06:03:31;100992.25;;;12.43;100.00
14269;BME280;7218;51.480;7.006;2022-09-19T06:06:00;100997.34;;;12.51;100.00
14269;BME280;7218;51.480;7.006;2022-09-19T06:08:27;100995.59;;;12.51;100.00
14269;BME280;7218;51.480;7.006;2022-09-19T06:10:54;101002.03;;;12.31;100.00
14269;BME280;7218;51.480;7.006;2022-09-19T06:13:22;100992.97;;;12.53;100.00
14269;BME280;7218;51.480;7.006;2022-09-19T06:15:49;101000.84;;;12.51;100.00
14269;BME280;7218;51.480;7.006;2022-09-19T06:18:15;101007.88;;;12.49;100.00
14269;BME280;7218;51.480;7.006;2022-09-19T06:20:43;101011.06;;;12.65;100.00
14269;BME280;7218;51.480;7.006;2022-09-19T06:23:13;101014.00;;;12.47;100.00
14269;BME280;7218;51.480;7.006;2022-09-19T06:25:39;101014.44;;;12.75;100.00
14269;BME280;7218;51.480;7.006;2022-09-19T06:28:08;101017.88;;;12.75;100.00
14269;BME280;7218;51.480;7.006;2022-09-19T06:30:36;101024.94;;;12.72;100.00
14269;BME280;7218;51.480;7.006;2022-09-19T06:33:04;101037.94;;;12.76;100.00
14269;BME280;7218;51.480;7.006;2022-09-19T06:35:30;101033.41;;;12.86;100.00
14269;BME280;7218;51.480;7.006;2022-09-19T06:37:58;101033.66;;;12.71;100.00
14269;BME280;7218;51.480;7.006;2022-09-19T06:40:27;101031.72;;;12.85;100.00
14269;BME280;7218;51.480;7.006;2022-09-19T06:42:58;101040.88;;;13.12;100.00
14269;BME280;7218;51.480;7.006;2022-09-19T06:45:27;101033.28;;;12.95;100.00
14269;BME280;7218;51.480;7.006;2022-09-19T06:47:57;101045.31;;;13.05;100.00
14269;BME280;7218;51.480;7.006;2022-09-19T06:50:25;101045.28;;;13.08;100.00
14269;BME280;7218;51.480;7.006;2022-09-19T06:52:52;101045.03;;;13.25;100.00
14269;BME280;7218;51.480;7.006;2022-09-19T06:55:19;101040.59;;;13.27;100.00
14269;BME280;7218;51.480;7.006;2022-09-19T06:57:53;101046.84;;;13.20;100.00
14269;BME280;7218;51.480;7.006;2022-09-19T07:00:21;101041.53;;;13.23;100.00
14269;BME280;7218;51.480;7.006;2022-09-19T07:02:50;101049.94;;;13.40;100.00
14269;BME280;7218;51.480;7.006;2022-09-19T07:05:18;101059.59;;;13.40;100.00
14269;BME280;7218;51.480;7.006;2022-09-19T07:07:44;101057.09;;;13.30;100.00
14269;BME280;7218;51.480;7.006;2022-09-19T07:10:11;101059.81;;;13.73;100.00
14269;BME280;7218;51.480;7.006;2022-09-19T07:12:38;101064.84;;;13.83;100.00
14269;BME280;7218;51.480;7.006;2022-09-19T07:15:06;101062.34;;;13.76;100.00
14269;BME280;7218;51.480;7.006;2022-09-19T07:17:33;101066.41;;;13.91;100.00
14269;BME280;7218;51.480;7.006;2022-09-19T07:19:59;101075.72;;;14.07;100.00
14269;BME280;7218;51.480;7.006;2022-09-19T07:22:26;101065.34;;;14.01;100.00
14269;BME280;7218;51.480;7.006;2022-09-19T07:24:52;101075.06;;;13.95;99.90
14269;BME280;7218;51.480;7.006;2022-09-19T07:27:19;101076.00;;;13.94;100.00
14269;BME280;7218;51.480;7.006;2022-09-19T07:29:46;101078.25;;;14.10;99.94
14269;BME280;7218;51.480;7.006;2022-09-19T07:32:14;101076.03;;;13.91;100.00
14269;BME280;7218;51.480;7.006;2022-09-19T07:34:40;101075.34;;;14.24;99.83
14269;BME280;7218;51.480;7.006;2022-09-19T07:37:06;101078.66;;;14.32;99.67
14269;BME280;7218;51.480;7.006;2022-09-19T07:39:33;101076.66;;;14.45;99.28
14269;BME280;7218;51.480;7.006;2022-09-19T07:41:59;101089.09;;;14.37;99.22
14269;BME280;7218;51.480;7.006;2022-09-19T07:44:26;101082.94;;;14.39;98.67
14269;BME280;7218;51.480;7.006;2022-09-19T07:46:53;101092.34;;;14.48;97.81
14269;BME280;7218;51.480;7.006;2022-09-19T07:49:38;101092.69;;;14.31;98.80
14269;BME280;7218;51.480;7.006;2022-09-19T07:52:05;101092.59;;;14.37;98.55
14269;BME280;7218;51.480;7.006;2022-09-19T07:54:31;101098.97;;;14.64;97.78
14269;BME280;7218;51.480;7.006;2022-09-19T07:56:58;101101.41;;;14.72;97.93
14269;BME280;7218;51.480;7.006;2022-09-19T07:59:25;101103.16;;;14.73;98.20
14269;BME280;7218;51.480;7.006;2022-09-19T08:01:51;101107.22;;;14.47;99.22
14269;BME280;7218;51.480;7.006;2022-09-19T08:04:18;101106.81;;;14.65;98.86
14269;BME280;7218;51.480;7.006;2022-09-19T08:06:46;101112.44;;;14.87;97.04
14269;BME280;7218;51.480;7.006;2022-09-19T08:09:12;101103.31;;;15.02;96.71
14269;BME280;7218;51.480;7.006;2022-09-19T08:11:39;101115.78;;;14.94;96.73
14269;BME280;7218;51.480;7.006;2022-09-19T08:14:05;101120.13;;;15.30;96.01
14269;BME280;7218;51.480;7.006;2022-09-19T08:16:32;101117.09;;;15.45;95.48
14269;BME280;7218;51.480;7.006;2022-09-19T08:18:58;101124.09;;;15.46;95.86
14269;BME280;7218;51.480;7.006;2022-09-19T08:21:25;101121.66;;;15.73;94.55
14269;BME280;7218;51.480;7.006;2022-09-19T08:23:53;101116.25;;;15.79;93.33
14269;BME280;7218;51.480;7.006;2022-09-19T08:26:19;101116.28;;;16.08;92.57
14269;BME280;7218;51.480;7.006;2022-09-19T08:28:48;101113.16;;;16.25;91.14
14269;BME280;7218;51.480;7.006;2022-09-19T08:31:14;101113.75;;;16.34;91.62
14269;BME280;7218;51.480;7.006;2022-09-19T08:33:40;101124.91;;;15.82;93.62
14269;BME280;7218;51.480;7.006;2022-09-19T08:36:07;101113.13;;;16.26;91.30
14269;BME280;7218;51.480;7.006;2022-09-19T08:38:35;101119.00;;;16.64;89.49
14269;BME280;7218;51.480;7.006;2022-09-19T08:41:12;101130.53;;;16.30;89.82
14269;BME280;7218;51.480;7.006;2022-09-19T08:43:49;101127.53;;;16.73;87.52
14269;BME280;7218;51.480;7.006;2022-09-19T08:46:22;101124.34;;;16.62;89.00
14269;BME280;7218;51.480;7.006;2022-09-19T08:48:55;101132.81;;;17.26;87.12
14269;BME280;7218;51.480;7.006;2022-09-19T08:51:27;101129.00;;;17.35;85.17
14269;BME280;7218;51.480;7.006;2022-09-19T08:53:58;101128.00;;;17.39;83.29
14269;BME280;7218;51.480;7.006;2022-09-19T08:56:29;101131.84;;;17.55;84.03
14269;BME280;7218;51.480;7.006;2022-09-19T08:58:59;101129.94;;;17.60;84.75
14269;BME280;7218;51.480;7.006;2022-09-19T09:01:30;101135.91;;;17.65;83.71
14269;BME280;7218;51.480;7.006;2022-09-19T09:04:06;101132.66;;;18.06;83.06
14269;BME280;7218;51.480;7.006;2022-09-19T09:06:44;101120.72;;;17.96;81.75
14269;BME280;7218;51.480;7.006;2022-09-19T09:09:20;101127.22;;;18.34;80.94
14269;BME280;7218;51.480;7.006;2022-09-19T09:12:01;101125.66;;;18.52;78.71
14269;BME280;7218;51.480;7.006;2022-09-19T09:14:47;101128.00;;;19.05;78.49
14269;BME280;7218;51.480;7.006;2022-09-19T09:17:20;101132.81;;;19.37;76.53
14269;BME280;7218;51.480;7.006;2022-09-19T09:20:15;101139.72;;;19.19;75.09
14269;BME280;7218;51.480;7.006;2022-09-19T09:22:46;101138.00;;;18.75;78.71
14269;BME280;7218;51.480;7.006;2022-09-19T09:25:19;101139.34;;;18.63;79.25
14269;BME280;7218;51.480;7.006;2022-09-19T09:27:55;101140.84;;;18.92;79.58
14269;BME280;7218;51.480;7.006;2022-09-19T09:30:23;101138.69;;;19.02;75.29
14269;BME280;7218;51.480;7.006;2022-09-19T09:32:54;101134.50;;;18.74;75.94
14269;BME280;7218;51.480;7.006;2022-09-19T09:35:30;101133.41;;;19.02;75.17
14269;BME280;7218;51.480;7.006;2022-09-19T09:38:01;101131.63;;;19.02;74.58
14269;BME280;7218;51.480;7.006;2022-09-19T09:40:38;101138.78;;;19.42;76.18
14269;BME280;7218;51.480;7.006;2022-09-19T09:43:32;101141.94;;;18.86;73.81
14269;BME280;7218;51.480;7.006;2022-09-19T09:46:05;101148.66;;;19.17;72.79
14269;BME280;7218;51.480;7.006;2022-09-19T09:48:38;101140.34;;;19.26;73.53
14269;BME280;7218;51.480;7.006;2022-09-19T09:51:13;101141.66;;;19.36;74.04
14269;BME280;7218;51.480;7.006;2022-09-19T09:53:53;101149.03;;;19.28;73.52
14269;BME280;7218;51.480;7.006;2022-09-19T09:56:27;101140.59;;;18.98;73.20
14269;BME280;7218;51.480;7.006;2022-09-19T09:59:05;101135.69;;;18.67;75.71
14269;BME280;7218;51.480;7.006;2022-09-19T10:01:41;101136.78;;;18.62;76.07
14269;BME280;7218;51.480;7.006;2022-09-19T10:04:32;101146.25;;;18.67;73.28
14269;BME280;7218;51.480;7.006;2022-09-19T10:07:13;101140.91;;;18.90;70.46
14269;BME280;7218;51.480;7.006;2022-09-19T10:09:45;101140.44;;;19.03;69.78
14269;BME280;7218;51.480;7.006;2022-09-19T10:12:17;101138.78;;;19.42;68.76
14269;BME280;7218;51.480;7.006;2022-09-19T10:14:51;101146.00;;;19.99;67.79
14269;BME280;7218;51.480;7.006;2022-09-19T10:17:21;101143.69;;;20.12;64.00
14269;BME280;7218;51.480;7.006;2022-09-19T10:19:54;101141.38;;;20.23;63.80
14269;BME280;7218;51.480;7.006;2022-09-19T10:22:23;101148.03;;;20.71;63.82
14269;BME280;7218;51.480;7.006;2022-09-19T10:24:50;101137.72;;;20.46;60.65
14269;BME280;7218;51.480;7.006;2022-09-19T10:27:21;101145.59;;;20.08;63.94
14269;BME280;7218;51.480;7.006;2022-09-19T10:29:56;101140.41;;;21.00;61.72
14269;BME280;7218;51.480;7.006;2022-09-19T10:32:27;101139.00;;;20.75;59.40
14269;BME280;7218;51.480;7.006;2022-09-19T10:35:00;101131.19;;;21.08;58.92
14269;BME280;7218;51.480;7.006;2022-09-19T10:37:28;101129.13;;;20.59;58.75
14269;BME280;7218;51.480;7.006;2022-09-19T10:40:00;101133.13;;;20.87;61.98
14269;BME280;7218;51.480;7.006;2022-09-19T10:42:32;101121.31;;;20.38;58.93
14269;BME280;7218;51.480;7.006;2022-09-19T10:45:13;101124.69;;;21.15;59.51
14269;BME280;7218;51.480;7.006;2022-09-19T10:47:41;101134.63;;;21.80;55.52
14269;BME280;7218;51.480;7.006;2022-09-19T10:50:13;101127.13;;;21.00;57.25
14269;BME280;7218;51.480;7.006;2022-09-19T10:52:40;101128.16;;;21.17;56.53
14269;BME280;7218;51.480;7.006;2022-09-19T10:55:13;101125.41;;;21.35;55.22
14269;BME280;7218;51.480;7.006;2022-09-19T10:57:42;101129.38;;;20.91;57.87
14269;BME280;7218;51.480;7.006;2022-09-19T11:00:30;101118.94;;;22.57;52.61
14269;BME280;7218;51.480;7.006;2022-09-19T11:03:00;101119.72;;;23.06;50.18
14269;BME280;7218;51.480;7.006;2022-09-19T11:05:29;101125.59;;;22.81;50.44
14269;BME280;7218;51.480;7.006;2022-09-19T11:07:56;101124.44;;;24.05;47.08
14269;BME280;7218;51.480;7.006;2022-09-19T11:10:31;101129.03;;;23.58;46.42
14269;BME280;7218;51.480;7.006;2022-09-19T11:13:10;101122.75;;;22.84;46.44
14269;BME280;7218;51.480;7.006;2022-09-19T11:15:55;101120.56;;;22.44;48.12
14269;BME280;7218;51.480;7.006;2022-09-19T11:18:38;101126.75;;;22.60;47.81
14269;BME280;7218;51.480;7.006;2022-09-19T11:21:14;101117.09;;;21.93;50.42
14269;BME280;7218;51.480;7.006;2022-09-19T11:23:50;101113.25;;;21.13;56.95
14269;BME280;7218;51.480;7.006;2022-09-19T11:26:32;101106.78;;;20.46;58.44
14269;BME280;7218;51.480;7.006;2022-09-19T11:29:12;101118.78;;;19.35;61.29
14269;BME280;7218;51.480;7.006;2022-09-19T11:31:53;101119.91;;;19.51;64.60
14269;BME280;7218;51.480;7.006;2022-09-19T11:34:35;101136.84;;;19.47;62.75
14269;BME280;7218;51.480;7.006;2022-09-19T11:37:13;101130.72;;;19.86;64.50
14269;BME280;7218;51.480;7.006;2022-09-19T11:39:59;101127.03;;;19.49;63.22
14269;BME280;7218;51.480;7.006;2022-09-19T11:42:38;101133.47;;;19.22;64.17
14269;BME280;7218;51.480;7.006;2022-09-19T11:45:12;101143.28;;;18.75;67.79
14269;BME280;7218;51.480;7.006;2022-09-19T11:47:53;101151.78;;;18.13;69.90
14269;BME280;7218;51.480;7.006;2022-09-19T11:50:50;101153.25;;;17.97;72.68
14269;BME280;7218;51.480;7.006;2022-09-19T11:53:26;101148.81;;;18.22;68.64
14269;BME280;7218;51.480;7.006;2022-09-19T11:56:00;101143.09;;;18.79;66.49
14269;BME280;7218;51.480;7.006;2022-09-19T11:58:35;101146.41;;;19.28;62.76
14269;BME280;7218;51.480;7.006;2022-09-19T12:01:18;101149.25;;;19.65;61.94
14269;BME280;7218;51.480;7.006;2022-09-19T12:03:58;101137.22;;;20.56;56.16
14269;BME280;7218;51.480;7.006;2022-09-19T12:06:45;101136.19;;;22.01;49.81
14269;BME280;7218;51.480;7.006;2022-09-19T12:09:20;101129.59;;;23.04;45.31
14269;BME280;7218;51.480;7.006;2022-09-19T12:11:53;101130.16;;;24.41;42.00
14269;BME280;7218;51.480;7.006;2022-09-19T12:14:25;101138.00;;;25.51;38.65
14269;BME280;7218;51.480;7.006;2022-09-19T12:16:56;101146.34;;;23.95;41.83
14269;BME280;7218;51.480;7.006;2022-09-19T12:19:29;101135.75;;;24.08;41.18
14269;BME280;7218;51.480;7.006;2022-09-19T12:22:02;101134.19;;;24.89;38.73
14269;BME280;7218;51.480;7.006;2022-09-19T12:24:34;101131.00;;;24.70;39.13
14269;BME280;7218;51.480;7.006;2022-09-19T12:27:31;101140.56;;;25.80;38.36
14269;BME280;7218;51.480;7.006;2022-09-19T12:30:00;101138.03;;;24.57;39.57
14269;BME280;7218;51.480;7.006;2022-09-19T12:32:36;101138.31;;;26.49;38.06
14269;BME280;7218;51.480;7.006;2022-09-19T12:35:14;101127.47;;;26.51;36.47
14269;BME280;7218;51.480;7.006;2022-09-19T12:37:49;101131.50;;;27.40;36.25
14269;BME280;7218;51.480;7.006;2022-09-19T12:40:26;101139.69;;;27.74;35.19
14269;BME280;7218;51.480;7.006;2022-09-19T12:43:00;101129.22;;;26.27;36.71
14269;BME280;7218;51.480;7.006;2022-09-19T12:45:35;101137.34;;;27.46;35.91
14269;BME280;7218;51.480;7.006;2022-09-19T12:48:11;101149.38;;;28.21;35.57
14269;BME280;7218;51.480;7.006;2022-09-19T12:50:44;101139.25;;;28.36;33.99
14269;BME280;7218;51.480;7.006;2022-09-19T12:53:24;101143.44;;;26.89;36.51
14269;BME280;7218;51.480;7.006;2022-09-19T12:55:56;101155.56;;;24.89;40.08
14269;BME280;7218;51.480;7.006;2022-09-19T12:58:31;101164.94;;;23.81;43.49
14269;BME280;7218;51.480;7.006;2022-09-19T13:01:08;101149.78;;;21.61;52.90
14269;BME280;7218;51.480;7.006;2022-09-19T13:03:40;101146.25;;;21.60;55.91
14269;BME280;7218;51.480;7.006;2022-09-19T13:06:11;101145.88;;;22.51;53.94
14269;BME280;7218;51.480;7.006;2022-09-19T13:08:45;101146.97;;;21.64;56.42
14269;BME280;7218;51.480;7.006;2022-09-19T13:11:15;101141.78;;;20.53;60.97
14269;BME280;7218;51.480;7.006;2022-09-19T13:13:49;101155.31;;;20.08;62.95
14269;BME280;7218;51.480;7.006;2022-09-19T13:16:20;101160.06;;;19.81;66.08